Date,TemperatureHighF,TemperatureAvgF,TemperatureLowF,DewpointHighF,DewpointAvgF,DewpointLowF,HumidityHigh,HumidityAvg,HumidityLow,PressureMaxIn,PressureMinIn,WindSpeedMaxMPH,WindSpeedAvgMPH,GustSpeedMaxMPH,PrecipitationSumIn
2014-1-1,67.8,44.9,0.0,35.2,29.1,0.0,91,60,24,30.23,30.14,0,0,5,0.00
2014-1-2,67.6,47.7,33.6,36.0,31.0,28.8,87,57,26,30.23,30.08,5,0,9,0.00
2014-1-3,67.3,48.2,34.9,38.1,32.9,31.0,87,60,27,30.08,29.96,0,0,0,0.04
2014-1-4,64.6,49.8,43.3,27.9,23.2,17.8,45,36,25,30.11,30.02,0,0,6,0.00
2014-1-5,66.0,46.7,31.5,32.5,25.9,16.5,73,47,26,30.23,30.08,6,0,11,0.00
2014-1-6,63.9,46.5,0.0,37.4,32.6,0.0,85,61,33,30.32,30.17,6,0,7,0.00
2014-1-7,67.6,49.6,0.0,48.8,36.0,0.0,91,62,26,30.23,30.14,5,0,9,0.00
2014-1-8,61.5,52.1,42.8,52.8,47.0,41.5,97,84,53,30.23,30.17,3,0,8,0.08
2014-1-9,63.9,49.3,41.9,54.7,43.8,41.1,97,83,47,30.29,30.17,4,0,10,0.00
2014-1-10,66.7,49.1,36.3,45.3,39.6,35.5,97,74,35,30.32,30.17,0,0,0,0.00
2014-1-11,61.2,47.9,39.9,51.7,43.5,37.7,97,86,62,30.29,30.17,6,0,10,0.08
2014-1-12,63.1,46.6,38.1,47.4,35.7,28.1,97,72,28,30.41,30.29,5,0,13,0.00
2014-1-13,66.7,52.8,39.6,34.4,31.3,28.7,74,46,27,30.46,30.35,9,1,16,0.00
2014-1-14,69.6,52.1,36.5,33.8,28.1,21.1,80,45,22,30.49,30.35,9,0,15,0.00
2014-1-15,70.2,50.6,36.1,34.3,29.8,24.5,75,49,24,30.38,30.23,6,0,12,0.00
2014-1-16,72.3,49.2,33.3,36.6,30.5,27.7,85,54,23,30.26,30.14,7,0,9,0.00
2014-1-17,70.2,48.1,32.0,35.4,30.7,27.4,86,56,25,30.23,30.14,6,0,11,0.00
2014-1-18,73.6,48.5,31.1,36.2,29.3,25.0,89,55,21,30.20,30.08,3,0,8,0.00
2014-1-19,68.7,46.9,30.9,34.0,29.5,25.8,84,56,26,30.17,30.08,6,0,11,0.00
2014-1-20,73.0,47.8,0.0,36.0,28.4,0.0,86,52,21,30.26,30.14,6,0,7,0.08
2014-1-21,70.7,47.0,0.0,33.2,27.4,0.0,83,52,22,30.29,30.17,4,0,11,0.00
2014-1-22,76.6,48.2,0.0,31.7,26.9,0.0,82,49,18,30.20,29.93,0,0,4,0.00
2014-1-23,66.0,48.2,34.0,31.9,28.7,25.3,78,51,25,30.02,29.90,14,1,14,0.00
2014-1-24,72.3,50.2,35.2,35.4,31.9,29.4,82,55,23,30.29,30.02,0,0,4,0.00
2014-1-25,75.7,53.1,38.1,38.9,31.2,24.6,81,49,20,30.29,30.14,8,0,8,0.00
2014-1-26,76.1,52.9,38.1,33.7,30.6,27.9,73,47,21,30.17,30.02,0,0,6,0.00
2014-1-27,70.0,51.3,0.0,47.1,38.9,0.0,91,64,33,30.20,30.08,0,0,6,0.00
2014-1-28,72.7,59.7,49.6,56.8,47.9,41.8,93,68,35,30.26,30.17,7,0,9,0.04
2014-1-29,65.3,60.2,55.4,59.3,55.8,52.0,96,86,72,30.23,29.99,7,0,8,0.00
2014-1-30,63.9,55.1,51.1,51.6,45.0,37.2,96,71,39,29.99,29.87,6,0,13,0.08
2014-1-31,64.9,51.0,0.0,46.1,35.7,0.0,95,60,24,30.29,29.90,9,1,13,0.04